sensor_id;sensor_type;location;lat;lon;timestamp;temperature;humidity
37285;DHT22;23172;53.550;9.964;2023-06-10T00:03:33;20.50;65.90
37285;DHT22;23172;53.550;9.964;2023-06-10T00:08:36;20.50;66.00
37285;DHT22;23172;53.550;9.964;2023-06-10T00:13:41;20.40;66.00
37285;DHT22;23172;53.550;9.964;2023-06-10T00:18:43;20.40;65.90
37285;DHT22;23172;53.550;9.964;2023-06-10T00:23:45;20.30;65.90
37285;DHT22;23172;53.550;9.964;2023-06-10T00:28:48;20.30;66.20
37285;DHT22;23172;53.550;9.964;2023-06-10T00:33:50;20.10;66.30
37285;DHT22;23172;53.550;9.964;2023-06-10T00:38:52;20.10;66.30
37285;DHT22;23172;53.550;9.964;2023-06-10T00:43:55;20.00;65.70
37285;DHT22;23172;53.550;9.964;2023-06-10T00:48:57;19.90;66.40
37285;DHT22;23172;53.550;9.964;2023-06-10T00:53:59;19.70;66.40
37285;DHT22;23172;53.550;9.964;2023-06-10T00:59:02;19.80;66.30
37285;DHT22;23172;53.550;9.964;2023-06-10T01:04:04;19.70;66.00
37285;DHT22;23172;53.550;9.964;2023-06-10T01:09:13;19.60;66.30
37285;DHT22;23172;53.550;9.964;2023-06-10T01:14:20;19.50;66.20
37285;DHT22;23172;53.550;9.964;2023-06-10T01:19:22;19.50;66.30
37285;DHT22;23172;53.550;9.964;2023-06-10T01:24:26;19.40;66.10
37285;DHT22;23172;53.550;9.964;2023-06-10T01:29:39;19.50;65.90
37285;DHT22;23172;53.550;9.964;2023-06-10T01:34:43;19.40;66.00
37285;DHT22;23172;53.550;9.964;2023-06-10T01:39:48;19.30;66.30
37285;DHT22;23172;53.550;9.964;2023-06-10T01:44:50;19.20;66.40
37285;DHT22;23172;53.550;9.964;2023-06-10T01:49:52;19.20;66.60
37285;DHT22;23172;53.550;9.964;2023-06-10T01:54:55;19.20;66.50
37285;DHT22;23172;53.550;9.964;2023-06-10T01:59:57;19.10;66.40
37285;DHT22;23172;53.550;9.964;2023-06-10T02:04:59;19.00;66.50
37285;DHT22;23172;53.550;9.964;2023-06-10T02:10:03;19.00;66.80
37285;DHT22;23172;53.550;9.964;2023-06-10T02:15:05;18.90;66.70
37285;DHT22;23172;53.550;9.964;2023-06-10T02:20:07;18.80;67.10
37285;DHT22;23172;53.550;9.964;2023-06-10T02:25:12;18.80;67.00
37285;DHT22;23172;53.550;9.964;2023-06-10T02:30:14;18.80;67.00
37285;DHT22;23172;53.550;9.964;2023-06-10T02:35:16;18.70;67.10
37285;DHT22;23172;53.550;9.964;2023-06-10T02:40:20;18.60;67.60
37285;DHT22;23172;53.550;9.964;2023-06-10T02:45:22;18.60;67.40
37285;DHT22;23172;53.550;9.964;2023-06-10T02:50:23;18.60;67.40
37285;DHT22;23172;53.550;9.964;2023-06-10T02:55:27;18.60;67.50
37285;DHT22;23172;53.550;9.964;2023-06-10T03:00:29;18.60;67.50
37285;DHT22;23172;53.550;9.964;2023-06-10T03:05:32;18.60;67.40
37285;DHT22;23172;53.550;9.964;2023-06-10T03:10:35;18.60;67.70
37285;DHT22;23172;53.550;9.964;2023-06-10T03:15:37;18.50;67.90
37285;DHT22;23172;53.550;9.964;2023-06-10T03:20:41;18.50;68.10
37285;DHT22;23172;53.550;9.964;2023-06-10T03:25:46;18.50;67.90
37285;DHT22;23172;53.550;9.964;2023-06-10T03:30:48;18.60;67.80
37285;DHT22;23172;53.550;9.964;2023-06-10T03:35:52;18.60;67.50
37285;DHT22;23172;53.550;9.964;2023-06-10T03:40:55;18.60;67.50
37285;DHT22;23172;53.550;9.964;2023-06-10T03:45:57;18.60;68.00
37285;DHT22;23172;53.550;9.964;2023-06-10T03:50:59;18.60;67.90
37285;DHT22;23172;53.550;9.964;2023-06-10T03:56:02;18.50;67.90
37285;DHT22;23172;53.550;9.964;2023-06-10T04:01:05;18.50;68.20
37285;DHT22;23172;53.550;9.964;2023-06-10T04:06:07;18.50;68.20
37285;DHT22;23172;53.550;9.964;2023-06-10T04:11:11;18.50;69.00
37285;DHT22;23172;53.550;9.964;2023-06-10T04:16:12;18.60;68.10
37285;DHT22;23172;53.550;9.964;2023-06-10T04:21:15;18.60;68.20
37285;DHT22;23172;53.550;9.964;2023-06-10T04:26:18;18.60;68.30
37285;DHT22;23172;53.550;9.964;2023-06-10T04:31:20;18.50;68.60
37285;DHT22;23172;53.550;9.964;2023-06-10T04:36:22;18.70;68.30
37285;DHT22;23172;53.550;9.964;2023-06-10T04:41:25;18.70;68.10
37285;DHT22;23172;53.550;9.964;2023-06-10T04:46:27;18.80;68.10
37285;DHT22;23172;53.550;9.964;2023-06-10T04:51:31;18.70;68.30
37285;DHT22;23172;53.550;9.964;2023-06-10T04:56:34;18.80;68.40
37285;DHT22;23172;53.550;9.964;2023-06-10T05:01:37;18.80;68.20
37285;DHT22;23172;53.550;9.964;2023-06-10T05:06:38;18.80;68.10
37285;DHT22;23172;53.550;9.964;2023-06-10T05:11:42;18.90;68.40
37285;DHT22;23172;53.550;9.964;2023-06-10T05:16:43;18.90;68.40
37285;DHT22;23172;53.550;9.964;2023-06-10T05:21:45;18.90;69.40
37285;DHT22;23172;53.550;9.964;2023-06-10T05:26:49;19.00;68.50
37285;DHT22;23172;53.550;9.964;2023-06-10T05:31:50;19.10;68.30
37285;DHT22;23172;53.550;9.964;2023-06-10T05:36:52;19.20;68.00
37285;DHT22;23172;53.550;9.964;2023-06-10T05:41:55;19.30;67.90
37285;DHT22;23172;53.550;9.964;2023-06-10T05:46:59;19.30;67.70
37285;DHT22;23172;53.550;9.964;2023-06-10T05:52:01;19.40;67.70
37285;DHT22;23172;53.550;9.964;2023-06-10T05:57:05;19.40;67.40
37285;DHT22;23172;53.550;9.964;2023-06-10T06:02:07;19.50;67.50
37285;DHT22;23172;53.550;9.964;2023-06-10T06:07:08;19.50;67.50
37285;DHT22;23172;53.550;9.964;2023-06-10T06:12:12;19.60;67.50
37285;DHT22;23172;53.550;9.964;2023-06-10T06:17:14;19.60;67.20
37285;DHT22;23172;53.550;9.964;2023-06-10T06:22:15;19.80;66.80
37285;DHT22;23172;53.550;9.964;2023-06-10T06:27:22;19.80;66.60
37285;DHT22;23172;53.550;9.964;2023-06-10T06:32:24;19.80;66.80
37285;DHT22;23172;53.550;9.964;2023-06-10T06:37:28;20.00;66.50
37285;DHT22;23172;53.550;9.964;2023-06-10T06:42:33;20.40;65.00
37285;DHT22;23172;53.550;9.964;2023-06-10T06:47:36;20.90;64.10
37285;DHT22;23172;53.550;9.964;2023-06-10T06:52:41;21.40;62.30
37285;DHT22;23172;53.550;9.964;2023-06-10T06:57:44;21.80;60.80
37285;DHT22;23172;53.550;9.964;2023-06-10T07:02:51;21.80;60.50
37285;DHT22;23172;53.550;9.964;2023-06-10T07:07:53;21.70;60.60
37285;DHT22;23172;53.550;9.964;2023-06-10T07:12:57;21.80;60.10
37285;DHT22;23172;53.550;9.964;2023-06-10T07:17:59;21.90;59.80
37285;DHT22;23172;53.550;9.964;2023-06-10T07:23:01;22.00;59.60
37285;DHT22;23172;53.550;9.964;2023-06-10T07:28:05;22.00;59.30
37285;DHT22;23172;53.550;9.964;2023-06-10T07:33:06;22.10;59.00
37285;DHT22;23172;53.550;9.964;2023-06-10T07:38:08;22.10;59.00
37285;DHT22;23172;53.550;9.964;2023-06-10T07:43:12;22.20;58.80
37285;DHT22;23172;53.550;9.964;2023-06-10T07:48:14;22.20;59.00
37285;DHT22;23172;53.550;9.964;2023-06-10T07:53:16;22.10;58.80
37285;DHT22;23172;53.550;9.964;2023-06-10T07:58:19;22.10;58.80
37285;DHT22;23172;53.550;9.964;2023-06-10T08:03:22;22.50;58.60
37285;DHT22;23172;53.550;9.964;2023-06-10T08:08:24;26.30;55.10
37285;DHT22;23172;53.550;9.964;2023-06-10T08:13:27;34.10;44.60
37285;DHT22;23172;53.550;9.964;2023-06-10T08:18:29;39.20;37.20
37285;DHT22;23172;53.550;9.964;2023-06-10T08:23:31;42.40;31.90
37285;DHT22;23172;53.550;9.964;2023-06-10T08:28:36;44.80;29.00
37285;DHT22;23172;53.550;9.964;2023-06-10T08:33:38;46.50;26.40
37285;DHT22;23172;53.550;9.964;2023-06-10T08:38:40;47.30;25.10
37285;DHT22;23172;53.550;9.964;2023-06-10T08:43:45;47.90;23.90
37285;DHT22;23172;53.550;9.964;2023-06-10T08:48:49;48.10;23.00
37285;DHT22;23172;53.550;9.964;2023-06-10T08:54:01;48.50;22.30
37285;DHT22;23172;53.550;9.964;2023-06-10T08:59:05;48.50;21.60
37285;DHT22;23172;53.550;9.964;2023-06-10T09:04:07;48.50;21.60
37285;DHT22;23172;53.550;9.964;2023-06-10T09:09:09;48.60;21.30
37285;DHT22;23172;53.550;9.964;2023-06-10T09:14:13;48.80;21.00
37285;DHT22;23172;53.550;9.964;2023-06-10T09:19:17;48.80;20.80
37285;DHT22;23172;53.550;9.964;2023-06-10T09:24:22;48.70;20.80
37285;DHT22;23172;53.550;9.964;2023-06-10T09:29:25;48.70;20.70
37285;DHT22;23172;53.550;9.964;2023-06-10T09:34:28;48.30;20.70
37285;DHT22;23172;53.550;9.964;2023-06-10T09:39:30;48.20;20.80
37285;DHT22;23172;53.550;9.964;2023-06-10T09:44:33;48.00;20.80
37285;DHT22;23172;53.550;9.964;2023-06-10T09:49:37;47.50;20.90
37285;DHT22;23172;53.550;9.964;2023-06-10T09:54:39;47.20;21.20
37285;DHT22;23172;53.550;9.964;2023-06-10T09:59:42;46.70;21.30
37285;DHT22;23172;53.550;9.964;2023-06-10T10:04:46;46.50;21.50
37285;DHT22;23172;53.550;9.964;2023-06-10T10:09:47;46.00;21.90
37285;DHT22;23172;53.550;9.964;2023-06-10T10:14:51;45.60;22.10
37285;DHT22;23172;53.550;9.964;2023-06-10T10:19:57;45.40;22.30
37285;DHT22;23172;53.550;9.964;2023-06-10T10:25:07;44.80;22.60
37285;DHT22;23172;53.550;9.964;2023-06-10T10:30:14;44.60;22.80
37285;DHT22;23172;53.550;9.964;2023-06-10T10:35:17;44.20;23.20
37285;DHT22;23172;53.550;9.964;2023-06-10T10:40:22;43.90;23.40
37285;DHT22;23172;53.550;9.964;2023-06-10T10:45:27;43.40;23.80
37285;DHT22;23172;53.550;9.964;2023-06-10T10:50:29;42.90;24.00
37285;DHT22;23172;53.550;9.964;2023-06-10T10:55:32;42.60;24.30
37285;DHT22;23172;53.550;9.964;2023-06-10T11:00:36;42.60;24.50
37285;DHT22;23172;53.550;9.964;2023-06-10T11:05:42;42.30;24.80
37285;DHT22;23172;53.550;9.964;2023-06-10T11:10:52;42.00;25.00
37285;DHT22;23172;53.550;9.964;2023-06-10T11:15:57;41.80;25.30
37285;DHT22;23172;53.550;9.964;2023-06-10T11:21:00;41.70;25.50
37285;DHT22;23172;53.550;9.964;2023-06-10T11:26:30;41.60;25.60
37285;DHT22;23172;53.550;9.964;2023-06-10T11:31:42;41.60;25.80
37285;DHT22;23172;53.550;9.964;2023-06-10T11:36:44;41.40;26.10
37285;DHT22;23172;53.550;9.964;2023-06-10T11:41:46;41.20;26.10
37285;DHT22;23172;53.550;9.964;2023-06-10T11:46:50;41.00;26.50
37285;DHT22;23172;53.550;9.964;2023-06-10T11:51:52;40.80;26.70
37285;DHT22;23172;53.550;9.964;2023-06-10T11:56:57;40.70;26.90
37285;DHT22;23172;53.550;9.964;2023-06-10T12:02:01;40.60;27.20
37285;DHT22;23172;53.550;9.964;2023-06-10T12:07:03;40.50;27.30
37285;DHT22;23172;53.550;9.964;2023-06-10T12:12:06;40.50;27.40
37285;DHT22;23172;53.550;9.964;2023-06-10T12:17:10;40.20;27.60
37285;DHT22;23172;53.550;9.964;2023-06-10T12:22:12;40.00;27.90
37285;DHT22;23172;53.550;9.964;2023-06-10T12:27:14;40.00;28.00
37285;DHT22;23172;53.550;9.964;2023-06-10T12:32:21;39.90;28.10
37285;DHT22;23172;53.550;9.964;2023-06-10T12:37:27;39.90;28.10
37285;DHT22;23172;53.550;9.964;2023-06-10T12:42:29;39.90;28.20
37285;DHT22;23172;53.550;9.964;2023-06-10T12:47:34;39.90;28.70
37285;DHT22;23172;53.550;9.964;2023-06-10T12:52:36;39.90;28.60
37285;DHT22;23172;53.550;9.964;2023-06-10T12:57:48;39.90;28.10
37285;DHT22;23172;53.550;9.964;2023-06-10T13:02:52;40.00;27.70
37285;DHT22;23172;53.550;9.964;2023-06-10T13:07:54;39.80;28.10
37285;DHT22;23172;53.550;9.964;2023-06-10T13:12:55;39.70;28.30
37285;DHT22;23172;53.550;9.964;2023-06-10T13:17:59;39.60;28.30
37285;DHT22;23172;53.550;9.964;2023-06-10T13:23:01;39.50;28.30
37285;DHT22;23172;53.550;9.964;2023-06-10T13:28:03;39.40;28.50
37285;DHT22;23172;53.550;9.964;2023-06-10T13:33:06;39.00;28.80
37285;DHT22;23172;53.550;9.964;2023-06-10T13:38:08;38.80;29.10
37285;DHT22;23172;53.550;9.964;2023-06-10T13:43:10;38.80;28.90
37285;DHT22;23172;53.550;9.964;2023-06-10T13:48:14;38.90;29.00
37285;DHT22;23172;53.550;9.964;2023-06-10T13:53:16;39.00;28.80
37285;DHT22;23172;53.550;9.964;2023-06-10T13:58:18;39.00;29.00
37285;DHT22;23172;53.550;9.964;2023-06-10T14:03:21;38.60;29.60
37285;DHT22;23172;53.550;9.964;2023-06-10T14:08:23;37.80;30.70
37285;DHT22;23172;53.550;9.964;2023-06-10T14:13:25;37.30;31.50
37285;DHT22;23172;53.550;9.964;2023-06-10T14:18:28;37.20;31.80
37285;DHT22;23172;53.550;9.964;2023-06-10T14:23:30;37.10;32.20
37285;DHT22;23172;53.550;9.964;2023-06-10T14:28:32;37.20;32.50
37285;DHT22;23172;53.550;9.964;2023-06-10T14:33:35;37.20;32.70
37285;DHT22;23172;53.550;9.964;2023-06-10T14:38:37;37.00;33.00
37285;DHT22;23172;53.550;9.964;2023-06-10T14:43:39;36.80;33.20
37285;DHT22;23172;53.550;9.964;2023-06-10T14:48:42;36.50;34.00
37285;DHT22;23172;53.550;9.964;2023-06-10T14:53:44;36.40;33.70
37285;DHT22;23172;53.550;9.964;2023-06-10T14:58:46;36.20;34.00
37285;DHT22;23172;53.550;9.964;2023-06-10T15:03:49;36.10;34.30
37285;DHT22;23172;53.550;9.964;2023-06-10T15:08:51;35.90;34.30
37285;DHT22;23172;53.550;9.964;2023-06-10T15:13:53;35.80;34.40
37285;DHT22;23172;53.550;9.964;2023-06-10T15:18:56;35.60;34.80
37285;DHT22;23172;53.550;9.964;2023-06-10T15:23:58;35.20;35.20
37285;DHT22;23172;53.550;9.964;2023-06-10T15:29:00;34.80;36.10
37285;DHT22;23172;53.550;9.964;2023-06-10T15:34:05;34.40;36.30
37285;DHT22;23172;53.550;9.964;2023-06-10T15:39:08;34.10;36.80
37285;DHT22;23172;53.550;9.964;2023-06-10T15:44:10;33.80;37.10
37285;DHT22;23172;53.550;9.964;2023-06-10T15:49:14;33.60;37.40
37285;DHT22;23172;53.550;9.964;2023-06-10T15:54:15;33.20;37.80
37285;DHT22;23172;53.550;9.964;2023-06-10T15:59:17;32.90;38.50
37285;DHT22;23172;53.550;9.964;2023-06-10T16:04:21;32.60;38.80
37285;DHT22;23172;53.550;9.964;2023-06-10T16:09:22;32.30;39.40
37285;DHT22;23172;53.550;9.964;2023-06-10T16:14:27;31.90;40.10
37285;DHT22;23172;53.550;9.964;2023-06-10T16:19:30;31.70;40.20
37285;DHT22;23172;53.550;9.964;2023-06-10T16:24:32;31.50;40.50
37285;DHT22;23172;53.550;9.964;2023-06-10T16:29:35;31.20;40.80
37285;DHT22;23172;53.550;9.964;2023-06-10T16:34:38;31.00;41.20
37285;DHT22;23172;53.550;9.964;2023-06-10T16:39:40;30.80;41.40
37285;DHT22;23172;53.550;9.964;2023-06-10T16:44:42;30.60;41.80
37285;DHT22;23172;53.550;9.964;2023-06-10T16:49:45;30.40;42.10
37285;DHT22;23172;53.550;9.964;2023-06-10T16:54:47;30.30;42.40
37285;DHT22;23172;53.550;9.964;2023-06-10T16:59:49;30.20;42.60
37285;DHT22;23172;53.550;9.964;2023-06-10T17:04:52;29.90;43.20
37285;DHT22;23172;53.550;9.964;2023-06-10T17:09:54;29.80;43.50
37285;DHT22;23172;53.550;9.964;2023-06-10T17:14:56;29.70;43.70
37285;DHT22;23172;53.550;9.964;2023-06-10T17:19:59;29.60;43.90
37285;DHT22;23172;53.550;9.964;2023-06-10T17:25:01;29.50;44.00
37285;DHT22;23172;53.550;9.964;2023-06-10T17:30:04;29.40;44.30
37285;DHT22;23172;53.550;9.964;2023-06-10T17:35:08;29.30;44.50
37285;DHT22;23172;53.550;9.964;2023-06-10T17:40:11;29.20;44.90
37285;DHT22;23172;53.550;9.964;2023-06-10T17:45:14;29.00;45.10
37285;DHT22;23172;53.550;9.964;2023-06-10T17:50:17;28.80;45.60
37285;DHT22;23172;53.550;9.964;2023-06-10T17:55:19;28.70;46.00
37285;DHT22;23172;53.550;9.964;2023-06-10T18:00:21;28.60;46.10
37285;DHT22;23172;53.550;9.964;2023-06-10T18:05:25;28.60;46.20
37285;DHT22;23172;53.550;9.964;2023-06-10T18:10:27;28.50;46.50
37285;DHT22;23172;53.550;9.964;2023-06-10T18:15:29;28.40;46.80
37285;DHT22;23172;53.550;9.964;2023-06-10T18:20:32;28.20;47.00
37285;DHT22;23172;53.550;9.964;2023-06-10T18:25:34;28.10;47.30
37285;DHT22;23172;53.550;9.964;2023-06-10T18:30:36;28.00;47.30
37285;DHT22;23172;53.550;9.964;2023-06-10T18:35:39;28.00;47.40
37285;DHT22;23172;53.550;9.964;2023-06-10T18:40:41;27.80;47.50
37285;DHT22;23172;53.550;9.964;2023-06-10T18:45:43;27.70;47.80
37285;DHT22;23172;53.550;9.964;2023-06-10T18:50:47;27.60;48.00
37285;DHT22;23172;53.550;9.964;2023-06-10T18:55:49;27.50;48.00
37285;DHT22;23172;53.550;9.964;2023-06-10T19:00:51;27.40;48.20
37285;DHT22;23172;53.550;9.964;2023-06-10T19:05:54;27.30;48.40
37285;DHT22;23172;53.550;9.964;2023-06-10T19:10:57;27.20;48.50
37285;DHT22;23172;53.550;9.964;2023-06-10T19:15:59;27.10;48.80
37285;DHT22;23172;53.550;9.964;2023-06-10T19:21:03;26.90;49.10
37285;DHT22;23172;53.550;9.964;2023-06-10T19:26:05;26.80;49.20
37285;DHT22;23172;53.550;9.964;2023-06-10T19:31:07;26.70;49.30
37285;DHT22;23172;53.550;9.964;2023-06-10T19:36:10;26.70;49.50
37285;DHT22;23172;53.550;9.964;2023-06-10T19:41:12;26.60;49.50
37285;DHT22;23172;53.550;9.964;2023-06-10T19:46:14;26.50;49.70
37285;DHT22;23172;53.550;9.964;2023-06-10T19:51:21;26.40;49.80
37285;DHT22;23172;53.550;9.964;2023-06-10T19:56:23;26.40;49.90
37285;DHT22;23172;53.550;9.964;2023-06-10T20:01:25;26.30;49.90
37285;DHT22;23172;53.550;9.964;2023-06-10T20:06:29;26.30;49.80
37285;DHT22;23172;53.550;9.964;2023-06-10T20:11:30;26.20;49.90
37285;DHT22;23172;53.550;9.964;2023-06-10T20:16:32;26.10;49.90
37285;DHT22;23172;53.550;9.964;2023-06-10T20:21:36;26.10;49.60
37285;DHT22;23172;53.550;9.964;2023-06-10T20:26:38;26.10;49.00
37285;DHT22;23172;53.550;9.964;2023-06-10T20:31:39;26.00;48.80
37285;DHT22;23172;53.550;9.964;2023-06-10T20:36:44;25.90;48.30
37285;DHT22;23172;53.550;9.964;2023-06-10T20:41:46;25.80;47.90
37285;DHT22;23172;53.550;9.964;2023-06-10T20:46:48;25.80;47.50
37285;DHT22;23172;53.550;9.964;2023-06-10T20:51:51;25.80;47.10
37285;DHT22;23172;53.550;9.964;2023-06-10T20:56:53;25.70;46.50
37285;DHT22;23172;53.550;9.964;2023-06-10T21:01:55;25.60;46.10
37285;DHT22;23172;53.550;9.964;2023-06-10T21:06:58;25.50;45.80
37285;DHT22;23172;53.550;9.964;2023-06-10T21:12:00;25.40;45.50
37285;DHT22;23172;53.550;9.964;2023-06-10T21:17:02;25.30;45.20
37285;DHT22;23172;53.550;9.964;2023-06-10T21:22:05;25.30;45.00
37285;DHT22;23172;53.550;9.964;2023-06-10T21:27:07;25.20;44.70
37285;DHT22;23172;53.550;9.964;2023-06-10T21:32:10;25.10;44.50
37285;DHT22;23172;53.550;9.964;2023-06-10T21:37:13;25.00;44.20
37285;DHT22;23172;53.550;9.964;2023-06-10T21:42:16;24.90;44.70
37285;DHT22;23172;53.550;9.964;2023-06-10T21:47:18;24.80;44.00
37285;DHT22;23172;53.550;9.964;2023-06-10T21:52:21;24.70;43.90
37285;DHT22;23172;53.550;9.964;2023-06-10T21:57:23;24.60;43.70
37285;DHT22;23172;53.550;9.964;2023-06-10T22:02:25;24.60;43.60
37285;DHT22;23172;53.550;9.964;2023-06-10T22:07:28;24.60;43.40
37285;DHT22;23172;53.550;9.964;2023-06-10T22:12:30;24.40;43.20
37285;DHT22;23172;53.550;9.964;2023-06-10T22:17:32;24.30;43.30
37285;DHT22;23172;53.550;9.964;2023-06-10T22:22:35;24.20;43.40
37285;DHT22;23172;53.550;9.964;2023-06-10T22:27:38;24.10;43.40
37285;DHT22;23172;53.550;9.964;2023-06-10T22:32:40;24.00;43.50
37285;DHT22;23172;53.550;9.964;2023-06-10T22:37:43;23.90;43.40
37285;DHT22;23172;53.550;9.964;2023-06-10T22:42:46;23.90;43.30
37285;DHT22;23172;53.550;9.964;2023-06-10T22:47:47;23.80;43.20
37285;DHT22;23172;53.550;9.964;2023-06-10T22:52:51;23.70;43.10
37285;DHT22;23172;53.550;9.964;2023-06-10T22:57:53;23.60;43.30
37285;DHT22;23172;53.550;9.964;2023-06-10T23:02:55;23.50;43.20
37285;DHT22;23172;53.550;9.964;2023-06-10T23:07:59;23.40;43.10
37285;DHT22;23172;53.550;9.964;2023-06-10T23:13:00;23.30;43.00
37285;DHT22;23172;53.550;9.964;2023-06-10T23:18:02;23.20;43.00
37285;DHT22;23172;53.550;9.964;2023-06-10T23:23:06;23.20;43.00
37285;DHT22;23172;53.550;9.964;2023-06-10T23:28:10;23.00;43.20
37285;DHT22;23172;53.550;9.964;2023-06-10T23:33:11;22.90;43.40
37285;DHT22;23172;53.550;9.964;2023-06-10T23:38:15;22.90;43.30
37285;DHT22;23172;53.550;9.964;2023-06-10T23:43:17;22.80;43.20
37285;DHT22;23172;53.550;9.964;2023-06-10T23:48:18;22.70;43.50
37285;DHT22;23172;53.550;9.964;2023-06-10T23:53:22;22.60;43.70
37285;DHT22;23172;53.550;9.964;2023-06-10T23:58:24;22.50;43.80
